Kezdőlap
METAR-TAF:

METAR-TAF

Repülőterek :

Skelton Airport

Eureka, Alaszka, Amerikai Egyesült Államok

földrajzi szélesség: 61-56N, földrajzi hosszúság: 147-10W, magasság: 1002 m

Jelenlegi meteorológiai megfigyelések

A jelentés 25 perccel ezelõtt készült, 17:17 UTC
Keleti szél 4 kt
Hőmérséklet -14°C
Páratartalom 85%
Légköri nyomás 1004 hPa
Látótávolság: 1.2 km
Szakadozott felhőzet 100 lábon
Szakadozott felhőzet 1100 lábon
Párásság

METAR: PAZK 151717Z AUTO 08004KT 3/4SM BR BKN001 BKN011 M14/M16 A2964 RMK AO2 FZRANO

Idő: 08:42 (17:42 UTC)


TAF: hiányzik

Meteorológiai megfigyelések és előrejelzések több, mint 4000 repülőtéren (METAR és TAF jelentéseket).

A térképen piros és sárga pontok jelzik az elérhető meteorológiai állomásokat.

Mozgassa az egeret a pont fölött, hogy megjelenjen az állomás neve.

Azután kattintson az időjárási megfigyelések és előrejelzések megtekintéséhez.

A térkép megváltoztatása: kattintson a fekete keresztel jelölt zöld gombra ráközelítéshez, a vonallal jelölt zöld gombra távolításhoz, vagy a zöld nyilakra a szomszédos térképek eléréséhez.


METAR-TAF: